Time;durP1;ratioP1;P1;durP2;ratioP2;P2;SDS_P1;SDS_P2;PMS_P1;PMS_P2;Temp;Humidity;BMP_temperature;BMP_pressure;BME280_temperature;BME280_humidity;BME280_pressure;Samples;Min_cycle;Max_cycle;Signal;HPM_P1;HPM_P2
2023/03/17 16:38:12;;;;;;;;;;;;;;;16.86;48.40;95753.59;3208576;23;20470;-84
2023/03/17 16:40:39;;;;;;;;;;;;;;;16.80;49.38;95753.63;4956193;29;20318;-84
2023/03/17 16:43:12;;;;;;;;;;;;;;;16.76;49.55;95765.03;4956021;29;19941;-84
2023/03/17 16:45:38;;;;;;;;;;;;;;;16.68;51.01;95773.53;4957136;29;20306;-85
2023/03/17 16:48:04;;;;;;;;;;;;;;;16.55;51.28;95781.00;4955280;28;19985;-84
2023/03/17 16:50:31;;;;;;;;;;;;;;;16.43;48.89;95776.03;4956787;29;19985;-84
2023/03/17 16:52:58;;;;;;;;;;;;;;;16.34;48.32;95776.88;4956036;29;19959;-71
2023/03/17 16:55:25;;;;;;;;;;;;;;;16.24;46.85;95775.81;4957390;29;19956;-69
2023/03/17 16:57:53;;;;;;;;;;;;;;;16.18;45.99;95782.19;4922828;29;20305;-70
2023/03/17 17:00:21;;;;;;;;;;;;;;;16.13;43.04;95778.78;4938957;29;19941;-69
2023/03/17 17:02:47;;;;;;;;;;;;;;;16.05;46.89;95788.06;4939264;29;19971;-69
2023/03/17 17:05:13;;;;;;;;;;;;;;;15.96;45.74;95798.41;4956263;29;19943;-69
2023/03/17 17:07:39;;;;;;;;;;;;;;;15.87;46.07;95797.34;4955776;29;19943;-69
2023/03/17 17:10:06;;;;;;;;;;;;;;;15.79;43.86;95785.47;4955876;29;20321;-72
2023/03/17 17:12:31;;;;;;;;;;;;;;;15.73;44.08;95798.97;4957682;29;19957;-69
2023/03/17 17:14:57;;;;;;;;;;;;;;;15.66;43.26;95785.97;4955280;29;19976;-84
2023/03/17 17:17:23;;;;;;;;;;;;;;;15.59;44.38;95794.19;4955661;29;19995;-84
2023/03/17 17:19:49;;;;;;;;;;;;;;;15.53;43.70;95802.38;4955837;29;20001;-83
2023/03/17 17:22:15;;;;;;;;;;;;;;;15.47;43.38;95801.56;4955557;29;20052;-85
2023/03/17 17:24:41;;;;;;;;;;;;;;;15.41;44.77;95813.19;4955594;29;20300;-83
2023/03/17 17:28:40;;;;;;;;;;;;;;;15.29;46.41;95812.69;5092251;28;20404;-68
2023/03/17 17:31:07;;;;;;;;;;;;;;;15.23;46.99;95815.31;5092203;28;19940;-90
2023/03/17 17:33:34;;;;;;;;;;;;;;;15.17;47.43;95819.00;5092234;28;19939;-83
2023/03/17 17:36:01;;;;;;;;;;;;;;;15.10;48.08;95815.00;5091318;28;19954;-83
2023/03/17 17:38:27;;;;;;;;;;;;;;;15.01;49.18;95812.09;5091199;28;20394;-82
2023/03/17 17:40:54;;;;;;;;;;;;;;;14.92;49.88;95817.09;5092042;28;19945;-83
2023/03/17 17:43:20;;;;;;;;;;;;;;;14.82;48.15;95822.34;5091754;28;19944;-85
2023/03/17 17:45:49;;;;;;;;;;;;;;;14.72;50.05;95822.31;5091119;28;19939;-82
2023/03/17 17:48:16;;;;;;;;;;;;;;;14.65;50.78;95827.06;5091412;28;19957;-73
2023/03/17 17:50:43;;;;;;;;;;;;;;;14.55;51.34;95825.97;5091278;28;19942;-67
2023/03/17 17:53:11;;;;;;;;;;;;;;;14.48;51.81;95825.38;5089500;28;20393;-68
2023/03/17 17:55:41;;;;;;;;;;;;;;;14.42;52.07;95826.41;5090344;28;20300;-67
2023/03/17 17:58:08;;;;;;;;;;;;;;;14.33;50.87;95820.03;5090253;28;19943;-67
2023/03/17 18:00:34;;;;;;;;;;;;;;;14.24;51.98;95826.81;5090665;28;20421;-68
2023/03/17 18:03:00;;;;;;;;;;;;;;;14.16;51.73;95833.41;5090670;28;20000;-67
2023/03/17 18:05:26;;;;;;;;;;;;;;;14.11;52.72;95838.63;5090542;28;19944;-70
2023/03/17 18:07:52;;;;;;;;;;;;;;;14.04;52.75;95844.13;5072555;28;19963;-71
2023/03/17 18:10:21;;;;;;;;;;;;;;;13.98;52.25;95847.78;5090546;28;20026;-70
2023/03/17 18:12:47;;;;;;;;;;;;;;;13.90;52.77;95856.97;5089530;28;19942;-70
2023/03/17 18:15:13;;;;;;;;;;;;;;;13.83;53.65;95852.97;5090937;28;19945;-71
2023/03/17 18:17:40;;;;;;;;;;;;;;;13.76;53.84;95853.97;5090413;28;20403;-70
2023/03/17 18:20:07;;;;;;;;;;;;;;;13.70;53.61;95847.06;5090909;28;19950;-70
2023/03/17 18:22:33;;;;;;;;;;;;;;;13.64;54.54;95861.25;5090844;28;19952;-71
2023/03/17 18:25:00;;;;;;;;;;;;;;;13.59;53.85;95858.56;5090255;28;19940;-68
2023/03/17 18:27:25;;;;;;;;;;;;;;;13.54;53.89;95854.06;5090361;28;20418;-70
2023/03/17 18:29:53;;;;;;;;;;;;;;;13.48;53.98;95857.69;5090737;28;20005;-70
2023/03/17 18:32:19;;;;;;;;;;;;;;;13.45;54.13;95865.31;5090101;28;20414;-71
2023/03/17 18:34:46;;;;;;;;;;;;;;;13.39;52.36;95869.72;5090150;28;19948;-71
2023/03/17 18:37:14;;;;;;;;;;;;;;;13.34;53.93;95873.09;5090726;28;19958;-71
2023/03/17 18:39:40;;;;;;;;;;;;;;;13.31;54.52;95880.69;5078832;28;19937;-70
2023/03/17 18:42:07;;;;;;;;;;;;;;;13.27;54.85;95880.38;5076504;28;19945;-70
2023/03/17 18:44:32;;;;;;;;;;;;;;;13.22;54.44;95885.59;5077048;28;19937;-69
2023/03/17 18:46:58;;;;;;;;;;;;;;;13.18;54.26;95881.88;5076505;28;20017;-72
2023/03/17 18:49:26;;;;;;;;;;;;;;;13.12;54.87;95891.56;5076871;28;19984;-70
2023/03/17 18:51:52;;;;;;;;;;;;;;;13.08;55.54;95895.72;5077097;28;20301;-71
2023/03/17 18:54:19;;;;;;;;;;;;;;;13.04;56.11;95897.25;5076999;28;19937;-69
2023/03/17 18:56:45;;;;;;;;;;;;;;;12.96;53.76;95898.47;5075650;28;20390;-70
2023/03/17 18:59:10;;;;;;;;;;;;;;;12.93;54.46;95903.44;5077036;28;19942;-71
2023/03/17 19:01:37;;;;;;;;;;;;;;;12.88;55.16;95904.19;5077003;28;19953;-88
2023/03/17 19:04:04;;;;;;;;;;;;;;;12.84;55.63;95907.56;5076182;28;20310;-70
2023/03/17 19:06:30;;;;;;;;;;;;;;;12.79;55.97;95906.44;5075897;28;19939;-70
2023/03/17 19:08:56;;;;;;;;;;;;;;;12.75;55.96;95913.25;5076580;28;20410;-70
2023/03/17 19:11:23;;;;;;;;;;;;;;;12.68;57.36;95915.25;5075949;28;19938;-69
2023/03/17 19:13:49;;;;;;;;;;;;;;;12.62;53.84;95904.91;5076758;28;19941;-70
2023/03/17 19:16:16;;;;;;;;;;;;;;;12.55;52.85;95903.25;5075220;28;19947;-72
2023/03/17 19:18:42;;;;;;;;;;;;;;;12.52;52.35;95905.59;5075840;28;19966;-69
2023/03/17 19:21:08;;;;;;;;;;;;;;;12.50;53.02;95899.78;5076618;28;20410;-71
2023/03/17 19:23:34;;;;;;;;;;;;;;;12.50;52.37;95900.56;5075007;28;20325;-68
2023/03/17 19:26:01;;;;;;;;;;;;;;;12.50;52.24;95886.63;5076502;28;19947;-68
2023/03/17 19:28:27;;;;;;;;;;;;;;;12.49;50.87;95890.28;5075402;28;19981;-67
2023/03/17 19:30:54;;;;;;;;;;;;;;;12.50;52.83;95899.78;5076130;28;20448;-68
2023/03/17 19:33:20;;;;;;;;;;;;;;;12.49;54.38;95906.06;5075454;28;19940;-70
2023/03/17 19:35:50;;;;;;;;;;;;;;;12.48;54.90;95909.72;5075838;28;19946;-68
2023/03/17 19:38:16;;;;;;;;;;;;;;;12.45;54.91;95903.13;5075699;28;19941;-71
2023/03/17 19:40:41;;;;;;;;;;;;;;;12.44;55.45;95916.50;5074774;28;19951;-70
2023/03/17 19:43:07;;;;;;;;;;;;;;;12.40;56.71;95908.31;5074478;28;19937;-70
2023/03/17 19:45:33;;;;;;;;;;;;;;;12.34;56.27;95907.44;5074867;28;19949;-71
2023/03/17 19:47:59;;;;;;;;;;;;;;;12.30;56.33;95910.78;5075061;28;19953;-71
2023/03/17 19:50:25;;;;;;;;;;;;;;;12.27;56.64;95909.44;5074573;28;19932;-71
2023/03/17 19:52:52;;;;;;;;;;;;;;;12.23;57.24;95910.19;5075158;28;19994;-70
2023/03/17 19:55:23;;;;;;;;;;;;;;;12.21;57.16;95922.75;5075606;28;19942;-71
2023/03/17 19:57:49;;;;;;;;;;;;;;;12.17;57.74;95909.28;5075427;28;20393;-70
2023/03/17 20:00:16;;;;;;;;;;;;;;;12.13;56.93;95914.22;5075787;28;19963;-70
2023/03/17 20:02:41;;;;;;;;;;;;;;;12.11;57.38;95918.13;5074806;28;19950;-69
2023/03/17 20:05:08;;;;;;;;;;;;;;;12.06;57.75;95918.06;5074895;28;19981;-70
2023/03/17 20:07:34;;;;;;;;;;;;;;;12.00;58.37;95917.19;5074284;28;19961;-69
2023/03/17 20:10:00;;;;;;;;;;;;;;;11.97;58.75;95920.31;5075583;28;19942;-70
2023/03/17 20:12:28;;;;;;;;;;;;;;;11.92;58.78;95923.63;5075266;28;20410;-70
2023/03/17 20:14:53;;;;;;;;;;;;;;;11.89;59.42;95932.00;5075256;28;19940;-69
2023/03/17 20:17:19;;;;;;;;;;;;;;;11.86;59.60;95934.28;5075199;28;19995;-70
2023/03/17 20:19:45;;;;;;;;;;;;;;;11.84;59.27;95926.63;5075155;28;19987;-68
2023/03/17 20:22:11;;;;;;;;;;;;;;;11.80;58.79;95938.66;5075111;28;20300;-70
2023/03/17 20:24:37;;;;;;;;;;;;;;;11.77;57.79;95936.50;5074505;28;19947;-69
2023/03/17 20:27:04;;;;;;;;;;;;;;;11.74;59.61;95939.63;5073502;28;19976;-69
2023/03/17 20:29:30;;;;;;;;;;;;;;;11.70;59.61;95934.03;5074338;28;20006;-69
2023/03/17 20:31:56;;;;;;;;;;;;;;;11.64;59.50;95932.34;5074357;28;19937;-69
2023/03/17 20:34:22;;;;;;;;;;;;;;;11.61;61.22;95938.06;5073928;28;19990;-90
2023/03/17 20:36:48;;;;;;;;;;;;;;;11.55;60.73;95929.31;5074293;28;19960;-72
2023/03/17 20:39:18;;;;;;;;;;;;;;;11.52;60.10;95932.41;5074224;28;19943;-72
2023/03/17 20:41:48;;;;;;;;;;;;;;;11.49;60.28;95921.59;5074187;28;19944;-71
2023/03/17 20:44:14;;;;;;;;;;;;;;;11.44;59.75;95930.16;5074141;28;19945;-73
2023/03/17 20:46:41;;;;;;;;;;;;;;;11.41;60.17;95922.75;5074968;28;19943;-73
2023/03/17 20:49:07;;;;;;;;;;;;;;;11.40;60.91;95930.88;5074285;28;20323;-72
2023/03/17 20:51:34;;;;;;;;;;;;;;;11.37;59.96;95922.44;5074085;28;19946;-68
2023/03/17 20:54:00;;;;;;;;;;;;;;;11.36;60.66;95920.84;5074067;28;19941;-69
2023/03/17 20:56:28;;;;;;;;;;;;;;;11.35;60.07;95918.44;5074407;28;20405;-70
2023/03/17 20:58:55;;;;;;;;;;;;;;;11.31;60.76;95919.94;5073968;28;19943;-71
2023/03/17 21:01:22;;;;;;;;;;;;;;;11.28;61.50;95918.59;5073716;28;19945;-70
2023/03/17 21:03:48;;;;;;;;;;;;;;;11.25;61.67;95918.25;5073922;28;19941;-70
2023/03/17 21:06:14;;;;;;;;;;;;;;;11.23;61.76;95929.00;5072408;28;19948;-70
2023/03/17 21:08:41;;;;;;;;;;;;;;;11.22;61.85;95929.25;5072010;28;19959;-69
2023/03/17 21:11:07;;;;;;;;;;;;;;;11.21;61.91;95927.63;5072024;28;19934;-69
2023/03/17 21:13:33;;;;;;;;;;;;;;;11.22;61.30;95929.25;5072294;28;19931;-68
2023/03/17 21:16:00;;;;;;;;;;;;;;;11.23;61.64;95928.19;5072010;28;19936;-68
2023/03/17 21:18:26;;;;;;;;;;;;;;;11.23;60.66;95925.56;5071647;28;20358;-68
2023/03/17 21:20:52;;;;;;;;;;;;;;;11.22;61.19;95932.66;5071737;28;19951;-69
2023/03/17 21:23:18;;;;;;;;;;;;;;;11.21;61.21;95936.28;5071543;28;19954;-67
2023/03/17 21:25:44;;;;;;;;;;;;;;;11.18;61.47;95934.94;5072185;28;19939;-68
2023/03/17 21:28:10;;;;;;;;;;;;;;;11.16;61.45;95937.00;5071471;28;19999;-92
2023/03/17 21:30:36;;;;;;;;;;;;;;;11.12;62.36;95933.25;5072056;28;19945;-72
2023/03/17 21:33:02;;;;;;;;;;;;;;;11.10;62.18;95945.03;5071849;28;20056;-68
2023/03/17 21:35:29;;;;;;;;;;;;;;;11.07;62.50;95948.91;5071565;28;19949;-68
2023/03/17 21:37:56;;;;;;;;;;;;;;;11.06;62.71;95942.06;5072725;28;20286;-68
2023/03/17 21:40:24;;;;;;;;;;;;;;;11.04;62.82;95951.97;5073552;28;20051;-69
2023/03/17 21:42:51;;;;;;;;;;;;;;;11.02;62.43;95950.63;5073537;28;19944;-68
2023/03/17 21:45:17;;;;;;;;;;;;;;;11.00;62.04;95942.19;5073761;28;19939;-69
2023/03/17 21:47:43;;;;;;;;;;;;;;;10.99;61.50;95949.28;5074534;28;19956;-71
2023/03/17 21:50:09;;;;;;;;;;;;;;;10.99;62.08;95951.09;5073465;28;20419;-69
2023/03/17 21:52:35;;;;;;;;;;;;;;;10.96;62.20;95947.09;5073682;28;20380;-69
2023/03/17 21:55:02;;;;;;;;;;;;;;;10.95;62.58;95958.63;5074228;28;19945;-68
2023/03/17 21:57:28;;;;;;;;;;;;;;;10.92;62.45;95961.75;5072080;28;19958;-69
2023/03/17 21:59:54;;;;;;;;;;;;;;;10.89;62.43;95962.19;5072433;28;19949;-69
2023/03/17 22:02:21;;;;;;;;;;;;;;;10.85;62.80;95959.22;5073327;28;19938;-69
2023/03/17 22:04:47;;;;;;;;;;;;;;;10.83;62.67;95971.75;5072053;28;19951;-71
2023/03/17 22:07:15;;;;;;;;;;;;;;;10.79;62.15;95973.25;5072798;28;19940;-71
2023/03/17 22:09:41;;;;;;;;;;;;;;;10.78;63.60;95984.78;5073273;28;19941;-68
2023/03/17 22:12:07;;;;;;;;;;;;;;;10.76;63.23;95982.38;5073798;28;19938;-68
2023/03/17 22:14:34;;;;;;;;;;;;;;;10.73;63.66;95979.41;5074634;28;19947;-68
2023/03/17 22:17:01;;;;;;;;;;;;;;;10.69;63.57;95978.31;5075686;28;19957;-68
2023/03/17 22:19:27;;;;;;;;;;;;;;;10.66;63.80;95987.41;5059001;28;19944;-68
2023/03/17 22:21:53;;;;;;;;;;;;;;;10.63;63.48;95994.97;5077325;28;19943;-68
2023/03/17 22:24:20;;;;;;;;;;;;;;;10.59;63.60;95993.81;5077045;28;19944;-89
2023/03/17 22:26:46;;;;;;;;;;;;;;;10.53;64.15;95985.81;5077294;28;19963;-89
2023/03/17 22:29:12;;;;;;;;;;;;;;;10.47;64.29;95980.69;5077420;28;20084;-89
2023/03/17 22:31:38;;;;;;;;;;;;;;;10.40;64.61;95990.50;5076756;28;20345;-88
2023/03/17 22:34:05;;;;;;;;;;;;;;;10.34;63.68;95997.44;5076854;28;19993;-86
2023/03/17 22:36:31;;;;;;;;;;;;;;;10.32;64.36;95999.50;5075858;28;20427;-83
2023/03/17 22:38:57;;;;;;;;;;;;;;;10.29;64.09;95998.13;5076692;28;19944;-81
2023/03/17 22:41:24;;;;;;;;;;;;;;;10.25;63.96;95998.78;5077399;28;19941;-79
2023/03/17 22:43:50;;;;;;;;;;;;;;;10.23;64.47;96003.47;5076514;28;19944;-69
2023/03/17 22:46:16;;;;;;;;;;;;;;;10.21;64.48;96000.28;5076322;28;20036;-69
2023/03/17 22:48:42;;;;;;;;;;;;;;;10.18;63.87;95996.25;5077158;28;20013;-68
2023/03/17 22:51:10;;;;;;;;;;;;;;;10.15;64.21;96004.56;5076286;28;19946;-68
2023/03/17 22:53:36;;;;;;;;;;;;;;;10.10;64.04;96002.63;5076723;28;19938;-68
2023/03/17 22:56:03;;;;;;;;;;;;;;;10.08;64.09;96002.06;5076471;28;19942;-68
2023/03/17 22:58:29;;;;;;;;;;;;;;;10.05;64.14;96006.94;5076710;28;20311;-68
2023/03/17 23:00:55;;;;;;;;;;;;;;;10.02;64.12;96005.59;5077025;28;19937;-71
2023/03/17 23:03:22;;;;;;;;;;;;;;;10.00;62.63;96002.38;5076362;28;19946;-70
2023/03/17 23:05:48;;;;;;;;;;;;;;;9.94;63.30;96005.91;5076787;28;19940;-70
2023/03/17 23:08:15;;;;;;;;;;;;;;;9.91;64.42;96016.81;5075953;28;19954;-70
2023/03/17 23:10:41;;;;;;;;;;;;;;;9.89;64.45;96013.63;5075939;28;20414;-70
2023/03/17 23:13:08;;;;;;;;;;;;;;;9.87;65.33;96026.13;5075887;28;20285;-70
2023/03/17 23:15:34;;;;;;;;;;;;;;;9.85;64.91;96030.81;5075809;28;19944;-70
2023/03/17 23:18:00;;;;;;;;;;;;;;;9.84;64.08;96021.34;5076405;28;19940;-71
2023/03/17 23:20:26;;;;;;;;;;;;;;;9.83;64.86;96036.28;5075748;28;19949;-71
2023/03/17 23:22:52;;;;;;;;;;;;;;;9.84;64.84;96039.69;5076314;28;19939;-70
2023/03/17 23:25:18;;;;;;;;;;;;;;;9.82;64.79;96039.13;5075772;28;19937;-71
2023/03/17 23:27:45;;;;;;;;;;;;;;;9.82;64.96;96039.13;5075568;28;20335;-70
2023/03/17 23:30:12;;;;;;;;;;;;;;;9.80;65.10;96044.56;5076125;28;19949;-70
2023/03/17 23:32:39;;;;;;;;;;;;;;;9.78;64.51;96037.97;5075494;28;19940;-70
2023/03/17 23:35:05;;;;;;;;;;;;;;;9.76;64.76;96040.78;5075521;28;20407;-70
2023/03/17 23:37:31;;;;;;;;;;;;;;;9.72;64.95;96048.31;5075476;28;19974;-68
2023/03/17 23:39:57;;;;;;;;;;;;;;;9.70;64.96;96049.53;5075478;28;20383;-67
2023/03/17 23:42:23;;;;;;;;;;;;;;;9.64;64.71;96048.63;5076066;28;19943;-68
2023/03/17 23:44:49;;;;;;;;;;;;;;;9.60;65.29;96031.75;5075324;28;19940;-68
2023/03/17 23:47:15;;;;;;;;;;;;;;;9.57;65.71;96034.81;5075806;28;19941;-68
2023/03/17 23:49:42;;;;;;;;;;;;;;;9.53;66.29;96037.09;5075887;28;19961;-68
2023/03/17 23:52:09;;;;;;;;;;;;;;;9.53;65.87;96036.25;5075708;28;19951;-67
2023/03/17 23:54:35;;;;;;;;;;;;;;;9.51;66.26;96039.13;5075081;28;19940;-82
2023/03/17 23:57:01;;;;;;;;;;;;;;;9.51;66.49;96046.16;5075342;28;19951;-70
2023/03/17 23:59:28;;;;;;;;;;;;;;;9.50;66.41;96044.56;5074982;28;19944;-84
